sensor_id;sensor_type;location;lat;lon;timestamp;P1;durP1;ratioP1;P2;durP2;ratioP2
14300;SDS011;7234;59.306;18.024;2022-08-25T17:35:05;0.68;;;0.68;;
14300;SDS011;7234;59.306;18.024;2022-08-25T17:37:33;1.15;;;0.80;;
14300;SDS011;7234;59.306;18.024;2022-08-25T17:40:01;0.70;;;0.70;;
14300;SDS011;7234;59.306;18.024;2022-08-25T17:42:28;1.50;;;0.80;;
14300;SDS011;7234;59.306;18.024;2022-08-25T17:44:56;0.90;;;0.80;;
14300;SDS011;7234;59.306;18.024;2022-08-25T17:47:23;0.73;;;0.70;;
14300;SDS011;7234;59.306;18.024;2022-08-25T17:49:50;2.40;;;0.70;;
14300;SDS011;7234;59.306;18.024;2022-08-25T17:52:19;1.25;;;0.90;;
14300;SDS011;7234;59.306;18.024;2022-08-25T17:54:46;0.75;;;0.75;;
14300;SDS011;7234;59.306;18.024;2022-08-25T17:57:13;1.08;;;0.80;;
14300;SDS011;7234;59.306;18.024;2022-08-25T17:59:40;0.95;;;0.80;;
14300;SDS011;7234;59.306;18.024;2022-08-25T18:02:07;1.00;;;0.80;;
14300;SDS011;7234;59.306;18.024;2022-08-25T18:04:35;0.93;;;0.65;;
14300;SDS011;7234;59.306;18.024;2022-08-25T18:07:03;0.65;;;0.60;;
14300;SDS011;7234;59.306;18.024;2022-08-25T18:09:31;0.70;;;0.70;;
14300;SDS011;7234;59.306;18.024;2022-08-25T18:11:58;0.63;;;0.40;;
14300;SDS011;7234;59.306;18.024;2022-08-25T18:14:25;1.02;;;0.63;;
14300;SDS011;7234;59.306;18.024;2022-08-25T18:16:52;0.70;;;0.70;;
14300;SDS011;7234;59.306;18.024;2022-08-25T18:19:20;1.40;;;0.50;;
14300;SDS011;7234;59.306;18.024;2022-08-25T18:21:47;1.23;;;0.82;;
14300;SDS011;7234;59.306;18.024;2022-08-25T18:24:15;0.98;;;0.80;;
14300;SDS011;7234;59.306;18.024;2022-08-25T18:26:43;0.70;;;0.70;;
14300;SDS011;7234;59.306;18.024;2022-08-25T18:29:10;0.80;;;0.80;;
14300;SDS011;7234;59.306;18.024;2022-08-25T18:31:37;1.30;;;0.90;;
14300;SDS011;7234;59.306;18.024;2022-08-25T18:34:05;1.77;;;0.77;;
14300;SDS011;7234;59.306;18.024;2022-08-25T18:36:35;1.42;;;1.13;;
14300;SDS011;7234;59.306;18.024;2022-08-25T18:39:02;1.70;;;1.30;;
14300;SDS011;7234;59.306;18.024;2022-08-25T18:41:49;0.95;;;0.88;;
14300;SDS011;7234;59.306;18.024;2022-08-25T18:44:16;1.02;;;0.80;;
14300;SDS011;7234;59.306;18.024;2022-08-25T18:46:43;1.30;;;1.10;;
14300;SDS011;7234;59.306;18.024;2022-08-25T18:49:10;1.38;;;1.08;;
14300;SDS011;7234;59.306;18.024;2022-08-25T18:51:39;2.15;;;1.17;;
14300;SDS011;7234;59.306;18.024;2022-08-25T18:54:06;3.10;;;0.88;;
14300;SDS011;7234;59.306;18.024;2022-08-25T18:56:33;2.90;;;1.00;;
14300;SDS011;7234;59.306;18.024;2022-08-25T18:59:03;1.80;;;0.82;;
14300;SDS011;7234;59.306;18.024;2022-08-25T19:01:31;2.80;;;1.02;;
14300;SDS011;7234;59.306;18.024;2022-08-25T19:03:59;2.03;;;0.70;;
14300;SDS011;7234;59.306;18.024;2022-08-25T19:06:27;1.58;;;0.90;;
14300;SDS011;7234;59.306;18.024;2022-08-25T19:08:55;1.38;;;1.10;;
14300;SDS011;7234;59.306;18.024;2022-08-25T19:11:22;2.55;;;0.88;;
14300;SDS011;7234;59.306;18.024;2022-08-25T19:13:49;2.65;;;0.90;;
14300;SDS011;7234;59.306;18.024;2022-08-25T19:16:30;1.70;;;0.90;;
14300;SDS011;7234;59.306;18.024;2022-08-25T19:18:59;2.58;;;1.13;;
14300;SDS011;7234;59.306;18.024;2022-08-25T19:21:27;2.35;;;0.90;;
14300;SDS011;7234;59.306;18.024;2022-08-25T19:23:55;1.40;;;1.10;;
14300;SDS011;7234;59.306;18.024;2022-08-25T19:26:22;1.50;;;0.95;;
14300;SDS011;7234;59.306;18.024;2022-08-25T19:28:50;3.90;;;1.50;;
14300;SDS011;7234;59.306;18.024;2022-08-25T19:31:19;3.17;;;1.10;;
14300;SDS011;7234;59.306;18.024;2022-08-25T19:33:48;1.90;;;1.00;;
14300;SDS011;7234;59.306;18.024;2022-08-25T19:36:18;1.10;;;1.00;;
14300;SDS011;7234;59.306;18.024;2022-08-25T19:38:48;3.50;;;1.05;;
14300;SDS011;7234;59.306;18.024;2022-08-25T19:41:16;4.75;;;1.25;;
14300;SDS011;7234;59.306;18.024;2022-08-25T19:44:04;5.05;;;1.20;;
14300;SDS011;7234;59.306;18.024;2022-08-25T19:46:35;1.17;;;1.00;;
14300;SDS011;7234;59.306;18.024;2022-08-25T19:49:06;1.25;;;1.00;;
14300;SDS011;7234;59.306;18.024;2022-08-25T19:51:41;4.60;;;1.23;;
14300;SDS011;7234;59.306;18.024;2022-08-25T19:54:11;1.85;;;1.10;;
14300;SDS011;7234;59.306;18.024;2022-08-25T19:57:08;1.30;;;1.05;;
14300;SDS011;7234;59.306;18.024;2022-08-25T19:59:47;1.20;;;1.08;;
14300;SDS011;7234;59.306;18.024;2022-08-25T20:09:17;5.22;;;1.25;;
14300;SDS011;7234;59.306;18.024;2022-08-25T20:12:29;2.15;;;1.10;;
14300;SDS011;7234;59.306;18.024;2022-08-25T20:15:18;2.53;;;1.17;;
14300;SDS011;7234;59.306;18.024;2022-08-25T20:27:56;1.80;;;1.30;;
14300;SDS011;7234;59.306;18.024;2022-08-25T20:30:38;2.85;;;1.20;;
14300;SDS011;7234;59.306;18.024;2022-08-25T20:33:25;4.22;;;1.30;;
